This is the latest recevied weather packets stored in our database for station/object KD9DOE. If no packets are shown the sender has not sent any weather packets the latest 1 day(s).
| Time | Temp. | Humidity | Pressure | Rain* | Wind** | Luminosity | Snow |
|---|---|---|---|---|---|---|---|
| 1777991282 | 10.56° C | 32% | 1008.8 hPa | 0 mm | 1.34 m/s, 331° | 441 W/m² | - |
| 1777990979 | 10.56° C | 37% | 1008.9 hPa | 0 mm | 1.34 m/s, 264° | 388 W/m² | - |
| 1777990677 | 10° C | 38% | 1009 hPa | 0 mm | 0.45 m/s, 102° | 378 W/m² | - |
| 1777990374 | 10° C | 37% | 1009 hPa | 0 mm | 0.45 m/s, 352° | 235 W/m² | - |
| 1777990070 | 10° C | 38% | 1009.1 hPa | 0 mm | 1.79 m/s, 334° | 201 W/m² | - |
| 1777989767 | 10° C | 39% | 1009.1 hPa | 0 mm | 1.34 m/s, 160° | 224 W/m² | - |
| 1777989464 | 9.44° C | 39% | 1009.3 hPa | 0 mm | 0.89 m/s, 320° | 137 W/m² | - |
| 1777989160 | 9.44° C | 39% | 1009.1 hPa | 0 mm | 0.89 m/s, 325° | 118 W/m² | - |
| 1777988856 | 8.89° C | 40% | 1009.1 hPa | 0 mm | 0.45 m/s, 260° | 193 W/m² | - |
| 1777988554 | 8.89° C | 39% | 1009.1 hPa | 0 mm | 0.89 m/s, 5° | 118 W/m² | - |
| 1777988250 | 9.44° C | 39% | 1009 hPa | 0 mm | 0.89 m/s, 0° | 96 W/m² | - |
| 1777987947 | 8.89° C | 40% | 1009 hPa | 0 mm | 0.45 m/s, 37° | 139 W/m² | - |
| 1777987642 | 9.44° C | 39% | 1009.3 hPa | 0 mm | 1.79 m/s, 331° | 92 W/m² | - |
| 1777987340 | 8.89° C | 41% | 1009.1 hPa | 0 mm | 0.89 m/s, 32° | 136 W/m² | - |
| 1777987037 | 8.89° C | 41% | 1009 hPa | 0 mm | 0.45 m/s, 355° | 142 W/m² | - |
| 1777986734 | 8.89° C | 41% | 1009.2 hPa | 0 mm | 1.79 m/s, 248° | 89 W/m² | - |
| 1777986432 | 8.89° C | 42% | 1009.1 hPa | 0 mm | 0.45 m/s, 287° | 99 W/m² | - |
| 1777986131 | 8.89° C | 41% | 1009 hPa | 0 mm | 0.89 m/s, 342° | 187 W/m² | - |
| 1777985827 | 8.89° C | 42% | 1008.9 hPa | 0 mm | 0.45 m/s, 217° | 119 W/m² | - |
| 1777985524 | 8.89° C | 44% | 1009.1 hPa | 0 mm | 0 m/s | 85 W/m² | - |
| 1777985221 | 8.33° C | 45% | 1009 hPa | 0 mm | 0.89 m/s, 281° | 112 W/m² | - |
| 1777984917 | 8.33° C | 45% | 1009.3 hPa | 0 mm | 0 m/s | 93 W/m² | - |
| 1777984613 | 7.78° C | 46% | 1009 hPa | 0 mm | 0.89 m/s, 236° | 78 W/m² | - |
| 1777984310 | 7.78° C | 47% | 1009.1 hPa | 0 mm | 0 m/s | 97 W/m² | - |
| 1777984006 | 7.78° C | 45% | 1009.2 hPa | 0 mm | 0 m/s | 66 W/m² | - |
* Rain latest hour (hover to see other rain measurements)
** Current wind speed in m/s (hover to see current wind gust speed)